Time;durP1;ratioP1;P1;durP2;ratioP2;P2;SDS_P1;SDS_P2;PMS_P1;PMS_P2;Temp;Humidity;BMP_temperature;BMP_pressure;BME280_temperature;BME280_humidity;BME280_pressure;Samples;Min_cycle;Max_cycle;Signal;HPM_P1;HPM_P2
2023/09/18 00:00:21;;;;;;;;;;;;;;;20.05;81.43;99881.63;5044249;28;19913;-86
2023/09/18 00:02:47;;;;;;;;;;;;;;;20.06;81.40;99880.41;5028405;28;19995;-85
2023/09/18 00:05:14;;;;;;;;;;;;;;;20.11;81.33;99869.91;5017461;28;19916;-86
2023/09/18 00:07:39;;;;;;;;;;;;;;;20.04;81.43;99874.31;5021729;28;20388;-86
2023/09/18 00:10:05;;;;;;;;;;;;;;;20.03;81.26;99875.53;5015977;28;19920;-86
2023/09/18 00:12:30;;;;;;;;;;;;;;;19.95;81.73;99873.81;5017529;28;19952;-85
2023/09/18 00:14:55;;;;;;;;;;;;;;;19.92;81.86;99878.22;5017047;28;19915;-86
2023/09/18 00:17:23;;;;;;;;;;;;;;;19.92;81.81;99871.72;5034875;28;19909;-85
2023/09/18 00:19:48;;;;;;;;;;;;;;;19.99;81.52;99874.66;5017079;28;19909;-86
2023/09/18 00:22:14;;;;;;;;;;;;;;;19.97;81.45;99877.06;5017352;28;19920;-86
2023/09/18 00:24:39;;;;;;;;;;;;;;;20.03;81.29;99872.69;5044683;28;19919;-85
2023/09/18 00:27:04;;;;;;;;;;;;;;;19.93;81.56;99879.06;5036683;28;19916;-86
2023/09/18 00:29:30;;;;;;;;;;;;;;;19.97;81.39;99867.72;5028138;28;19916;-85
2023/09/18 00:31:56;;;;;;;;;;;;;;;19.92;81.39;99871.72;5036830;28;19920;-86
2023/09/18 00:34:35;;;;;;;;;;;;;;;19.91;81.52;99870.91;5017457;28;19967;-86
2023/09/18 00:37:00;;;;;;;;;;;;;;;19.97;81.19;99874.22;5022292;28;19919;-85
2023/09/18 00:39:26;;;;;;;;;;;;;;;19.92;81.27;99883.09;5028449;28;19913;-86
2023/09/18 00:41:53;;;;;;;;;;;;;;;19.94;81.24;99879.88;5022429;28;19921;-85
2023/09/18 00:44:22;;;;;;;;;;;;;;;19.86;81.80;99874.09;5047659;28;20312;-85
2023/09/18 00:46:48;;;;;;;;;;;;;;;19.89;81.54;99878.16;5035591;28;19919;-85
2023/09/18 00:49:14;;;;;;;;;;;;;;;19.91;81.20;99881.44;5019284;28;19944;-86
2023/09/18 00:51:39;;;;;;;;;;;;;;;19.97;80.94;99879.91;5016661;28;19909;-86
2023/09/18 00:54:05;;;;;;;;;;;;;;;20.06;80.76;99877.56;5016610;28;19913;-86
2023/09/18 00:56:32;;;;;;;;;;;;;;;20.14;80.41;99874.78;5019492;28;19924;-85
2023/09/18 00:58:57;;;;;;;;;;;;;;;20.05;80.46;99870.25;5013539;28;20373;-85
2023/09/18 01:01:23;;;;;;;;;;;;;;;20.01;80.63;99860.88;4996854;28;19960;-86
2023/09/18 01:03:53;;;;;;;;;;;;;;;20.09;80.50;99866.63;5010424;28;19956;-86
2023/09/18 01:06:19;;;;;;;;;;;;;;;20.02;80.79;99861.72;5025786;28;19951;-85
2023/09/18 01:08:45;;;;;;;;;;;;;;;20.00;80.81;99867.75;5016771;28;19912;-85
2023/09/18 01:11:15;;;;;;;;;;;;;;;19.97;81.22;99873.41;5027062;28;19917;-85
2023/09/18 01:14:04;;;;;;;;;;;;;;;20.06;80.72;99871.91;5035558;28;19913;-85
2023/09/18 01:16:34;;;;;;;;;;;;;;;20.05;81.10;99869.44;5027867;28;19909;-85
2023/09/18 01:19:02;;;;;;;;;;;;;;;20.13;80.37;99873.97;5035731;28;19908;-86
2023/09/18 01:21:28;;;;;;;;;;;;;;;20.06;81.09;99871.91;5035648;28;19919;-85
2023/09/18 01:23:53;;;;;;;;;;;;;;;20.04;80.64;99880.00;5023203;28;19913;-85
2023/09/18 01:26:18;;;;;;;;;;;;;;;20.13;80.66;99876.81;5015562;28;19928;-86
2023/09/18 01:28:44;;;;;;;;;;;;;;;20.25;80.32;99872.88;5028754;28;19913;-86
2023/09/18 01:31:09;;;;;;;;;;;;;;;20.25;79.42;99872.88;5015606;28;19963;-85
2023/09/18 01:33:36;;;;;;;;;;;;;;;20.38;79.04;99870.56;5022750;28;20354;-86
2023/09/18 01:36:03;;;;;;;;;;;;;;;20.41;78.45;99878.28;5033637;28;20003;-85
2023/09/18 01:38:28;;;;;;;;;;;;;;;20.15;79.10;99873.56;5031796;28;19919;-85
2023/09/18 01:40:54;;;;;;;;;;;;;;;20.04;80.13;99867.81;5035449;28;19913;-85
2023/09/18 01:43:19;;;;;;;;;;;;;;;20.17;79.79;99874.81;5026574;28;20607;-85
2023/09/18 01:45:45;;;;;;;;;;;;;;;20.23;79.17;99874.47;5019860;28;19922;-85
2023/09/18 01:48:11;;;;;;;;;;;;;;;20.12;79.28;99871.53;5026750;28;19913;-85
2023/09/18 01:50:36;;;;;;;;;;;;;;;20.09;79.45;99870.31;5024652;28;19963;-85
2023/09/18 01:53:02;;;;;;;;;;;;;;;19.99;79.63;99871.00;5029401;28;20007;-86
2023/09/18 01:55:28;;;;;;;;;;;;;;;19.97;79.67;99868.56;5034829;28;20351;-85
2023/09/18 01:57:54;;;;;;;;;;;;;;;19.98;79.64;99864.50;5034178;28;19996;-85
2023/09/18 02:00:20;;;;;;;;;;;;;;;19.95;79.48;99867.31;5015341;28;19947;-86
2023/09/18 02:02:46;;;;;;;;;;;;;;;20.07;79.12;99864.19;5028842;28;20304;-86
2023/09/18 02:05:11;;;;;;;;;;;;;;;20.16;78.71;99864.69;5034960;28;20007;-85
2023/09/18 02:07:36;;;;;;;;;;;;;;;20.06;78.98;99874.72;5023314;28;20007;-85
2023/09/18 02:10:03;;;;;;;;;;;;;;;20.08;78.98;99865.81;5034992;28;19913;-85
2023/09/18 02:12:29;;;;;;;;;;;;;;;20.01;79.33;99868.59;5034369;28;19917;-85
2023/09/18 02:14:57;;;;;;;;;;;;;;;19.99;79.43;99866.13;5033303;28;19912;-86
2023/09/18 02:17:22;;;;;;;;;;;;;;;20.04;79.68;99873.47;5032001;28;20377;-85
2023/09/18 02:19:48;;;;;;;;;;;;;;;20.11;79.11;99876.41;5034660;28;19924;-85
2023/09/18 02:22:13;;;;;;;;;;;;;;;20.23;78.69;99878.13;5016456;28;20357;-85
2023/09/18 02:24:38;;;;;;;;;;;;;;;20.33;78.30;99877.41;5017849;28;19913;-85
2023/09/18 02:27:04;;;;;;;;;;;;;;;20.46;77.70;99875.09;5014893;28;19964;-85
2023/09/18 02:29:29;;;;;;;;;;;;;;;20.42;77.58;99877.06;5014709;28;19913;-85
2023/09/18 02:31:55;;;;;;;;;;;;;;;20.41;77.58;99875.44;5014754;28;19920;-86
2023/09/18 02:34:20;;;;;;;;;;;;;;;20.49;77.12;99876.31;5027149;28;19943;-85
2023/09/18 02:36:46;;;;;;;;;;;;;;;20.50;77.10;99872.25;5028710;28;20362;-86
2023/09/18 02:39:11;;;;;;;;;;;;;;;20.55;77.02;99880.44;5015123;28;19931;-85
2023/09/18 02:41:36;;;;;;;;;;;;;;;20.52;76.95;99881.22;5014714;28;19909;-85
2023/09/18 02:44:01;;;;;;;;;;;;;;;20.73;76.00;99889.09;5020535;28;19913;-85
2023/09/18 02:46:27;;;;;;;;;;;;;;;20.73;75.67;99891.13;5023333;28;19917;-86
2023/09/18 02:48:52;;;;;;;;;;;;;;;20.66;76.01;99886.19;5023133;28;20304;-85
2023/09/18 02:51:17;;;;;;;;;;;;;;;20.50;76.53;99885.66;5014726;28;19913;-85
2023/09/18 02:53:43;;;;;;;;;;;;;;;20.59;75.98;99884.13;5016629;28;19913;-86
2023/09/18 02:56:08;;;;;;;;;;;;;;;20.63;75.71;99895.50;5023423;28;19927;-85
2023/09/18 02:58:33;;;;;;;;;;;;;;;20.61;75.99;99890.22;5052099;28;19999;-86
2023/09/18 03:00:59;;;;;;;;;;;;;;;20.78;75.27;99893.59;5034208;28;19948;-85
2023/09/18 03:03:25;;;;;;;;;;;;;;;20.84;74.78;99885.56;5034198;28;19909;-85
2023/09/18 03:05:50;;;;;;;;;;;;;;;20.95;74.36;99885.63;5020260;28;19921;-86
2023/09/18 03:08:16;;;;;;;;;;;;;;;21.05;73.53;99887.72;5020095;28;19970;-86
2023/09/18 03:10:42;;;;;;;;;;;;;;;20.99;73.53;99883.59;5018646;28;19928;-85
2023/09/18 03:13:08;;;;;;;;;;;;;;;21.07;73.46;99875.94;5035972;28;19909;-86
2023/09/18 03:15:34;;;;;;;;;;;;;;;21.13;72.97;99886.56;5018963;28;19912;-85
2023/09/18 03:18:00;;;;;;;;;;;;;;;20.89;73.70;99894.53;5018408;28;20369;-85
2023/09/18 03:20:27;;;;;;;;;;;;;;;20.87;74.28;99894.09;5015845;28;19919;-85
2023/09/18 03:22:54;;;;;;;;;;;;;;;20.85;74.84;99895.72;5034683;28;20352;-86
2023/09/18 03:25:19;;;;;;;;;;;;;;;20.85;75.15;99893.66;5021393;28;20003;-86
2023/09/18 03:27:44;;;;;;;;;;;;;;;21.01;74.98;99896.22;5018417;28;19996;-85
2023/09/18 03:30:12;;;;;;;;;;;;;;;21.02;75.19;99888.50;5017619;28;19925;-85
2023/09/18 03:32:38;;;;;;;;;;;;;;;21.01;75.53;99899.06;5017842;28;20003;-85
2023/09/18 03:35:03;;;;;;;;;;;;;;;21.05;75.52;99896.25;5023279;28;20008;-85
2023/09/18 03:37:28;;;;;;;;;;;;;;;20.93;76.24;99905.09;5020454;28;19936;-85
2023/09/18 03:39:54;;;;;;;;;;;;;;;20.94;76.29;99899.03;5017399;28;19913;-85
2023/09/18 03:42:19;;;;;;;;;;;;;;;20.84;76.98;99899.75;5017807;28;20004;-85
2023/09/18 03:44:44;;;;;;;;;;;;;;;20.75;76.92;99906.56;5023461;28;19916;-85
2023/09/18 03:47:10;;;;;;;;;;;;;;;20.59;77.71;99904.00;5020563;28;19955;-85
2023/09/18 03:49:35;;;;;;;;;;;;;;;20.76;77.17;99907.41;5018776;28;19924;-85
2023/09/18 03:52:00;;;;;;;;;;;;;;;20.88;76.96;99900.59;5032530;28;20544;-85
2023/09/18 03:54:26;;;;;;;;;;;;;;;20.85;77.03;99902.19;5017148;28;19920;-85
2023/09/18 03:56:51;;;;;;;;;;;;;;;20.77;77.29;99904.16;5016553;28;19932;-85
2023/09/18 03:59:16;;;;;;;;;;;;;;;20.84;77.21;99909.09;5017146;28;19917;-85
2023/09/18 04:01:41;;;;;;;;;;;;;;;20.84;77.29;99905.44;5016778;28;19920;-85
2023/09/18 04:04:07;;;;;;;;;;;;;;;20.85;77.14;99909.94;5019325;28;20002;-85
2023/09/18 04:06:51;;;;;;;;;;;;;;;20.82;77.09;99905.84;5017125;28;20020;-85
2023/09/18 04:09:17;;;;;;;;;;;;;;;20.89;76.78;99911.59;5034256;28;20032;-86
2023/09/18 04:11:43;;;;;;;;;;;;;;;20.82;77.12;99910.72;5016253;28;19967;-85
2023/09/18 04:14:08;;;;;;;;;;;;;;;20.82;77.37;99910.72;5018742;28;19916;-85
2023/09/18 04:16:35;;;;;;;;;;;;;;;20.87;77.11;99905.47;5016566;28;20397;-86
2023/09/18 04:19:03;;;;;;;;;;;;;;;20.76;77.34;99901.72;5027994;28;20433;-86
2023/09/18 04:21:29;;;;;;;;;;;;;;;20.67;77.76;99901.22;5036534;28;20007;-86
2023/09/18 04:23:57;;;;;;;;;;;;;;;20.73;77.43;99893.97;5025062;28;19967;-87
2023/09/18 04:26:23;;;;;;;;;;;;;;;20.77;77.10;99894.81;5017581;28;19912;-86
2023/09/18 04:28:48;;;;;;;;;;;;;;;20.72;77.41;99889.50;5033455;28;19919;-87
2023/09/18 04:31:14;;;;;;;;;;;;;;;20.72;77.13;99895.16;5054786;28;19913;-87
2023/09/18 04:33:39;;;;;;;;;;;;;;;20.73;77.25;99891.94;5069925;28;19915;-86
2023/09/18 04:36:04;;;;;;;;;;;;;;;20.79;76.79;99878.19;5028941;28;19971;-87
2023/09/18 04:38:29;;;;;;;;;;;;;;;20.85;76.51;99885.13;5026041;28;19948;-87
2023/09/18 04:40:59;;;;;;;;;;;;;;;20.83;76.49;99884.72;5017666;28;19958;-87
2023/09/18 04:43:24;;;;;;;;;;;;;;;20.92;76.18;99892.09;5032883;28;19912;-86
2023/09/18 04:45:50;;;;;;;;;;;;;;;20.97;75.99;99894.56;5031557;28;20290;-87
2023/09/18 04:48:15;;;;;;;;;;;;;;;20.98;75.90;99891.31;5032441;28;19913;-86
2023/09/18 04:50:40;;;;;;;;;;;;;;;20.86;76.64;99900.97;5017581;28;20378;-87
2023/09/18 04:53:06;;;;;;;;;;;;;;;20.75;77.74;99897.22;5016522;28;19913;-87
2023/09/18 04:55:31;;;;;;;;;;;;;;;20.87;76.78;99902.63;5021907;28;20305;-87
2023/09/18 04:57:58;;;;;;;;;;;;;;;20.92;76.92;99906.31;5015566;28;20457;-87
2023/09/18 05:00:26;;;;;;;;;;;;;;;20.85;76.86;99902.19;5015964;28;20344;-87
2023/09/18 05:02:51;;;;;;;;;;;;;;;20.89;76.52;99907.91;5016431;28;19913;-87
2023/09/18 05:05:17;;;;;;;;;;;;;;;20.95;76.25;99908.34;5016417;28;19966;-87
2023/09/18 05:07:43;;;;;;;;;;;;;;;20.98;75.87;99908.38;5015903;28;19987;-86
2023/09/18 05:10:08;;;;;;;;;;;;;;;20.97;77.07;99917.31;5034546;28;20436;-86
2023/09/18 05:12:34;;;;;;;;;;;;;;;21.00;76.46;99916.53;5014815;28;20177;-86
2023/09/18 05:14:59;;;;;;;;;;;;;;;21.07;76.28;99902.34;5007833;28;19916;-86
2023/09/18 05:17:39;;;;;;;;;;;;;;;21.11;75.75;99900.31;5022889;28;20013;-84
2023/09/18 05:20:05;;;;;;;;;;;;;;;20.75;77.84;99911.44;5006416;28;19909;-84
2023/09/18 05:22:30;;;;;;;;;;;;;;;20.61;79.45;99906.47;5015442;28;19917;-85
2023/09/18 05:24:56;;;;;;;;;;;;;;;20.73;77.81;99911.84;5027142;28;19936;-84
2023/09/18 05:27:24;;;;;;;;;;;;;;;20.73;76.94;99903.31;5016720;28;19971;-84
2023/09/18 05:29:50;;;;;;;;;;;;;;;20.87;76.65;99896.94;5014457;28;19921;-87
2023/09/18 05:32:15;;;;;;;;;;;;;;;21.02;75.74;99891.34;5027579;28;19923;-86
2023/09/18 05:34:40;;;;;;;;;;;;;;;21.08;75.42;99892.59;5021878;28;19913;-86
2023/09/18 05:37:06;;;;;;;;;;;;;;;21.16;76.65;99894.28;5025347;28;20019;-87
2023/09/18 05:39:31;;;;;;;;;;;;;;;21.15;77.17;99897.50;5063020;28;19958;-87
2023/09/18 05:41:57;;;;;;;;;;;;;;;21.10;77.02;99893.00;5031317;28;19974;-87
2023/09/18 05:44:23;;;;;;;;;;;;;;;21.13;76.74;99903.63;5023263;28;19916;-88
2023/09/18 05:46:48;;;;;;;;;;;;;;;21.10;77.25;99901.53;5016606;28;19967;-88
2023/09/18 05:49:14;;;;;;;;;;;;;;;21.02;77.64;99902.72;5021995;28;20829;-89
2023/09/18 05:51:39;;;;;;;;;;;;;;;21.03;77.29;99904.38;5039067;28;20007;-92
2023/09/18 05:54:05;;;;;;;;;;;;;;;20.89;76.54;99905.91;5015964;28;19913;-89
2023/09/18 05:56:30;;;;;;;;;;;;;;;20.80;77.01;99915.94;5032831;28;20004;-89
2023/09/18 05:58:56;;;;;;;;;;;;;;;20.90;76.81;99912.38;5015645;28;19913;-89
2023/09/18 06:01:21;;;;;;;;;;;;;;;20.88;76.62;99914.81;5015168;28;19909;-89
2023/09/18 06:03:47;;;;;;;;;;;;;;;20.58;77.26;99913.75;5023884;28;20301;-86
2023/09/18 06:06:12;;;;;;;;;;;;;;;20.66;77.27;99920.28;5015934;28;19916;-87
2023/09/18 06:08:38;;;;;;;;;;;;;;;20.73;77.33;99914.69;5015870;28;19921;-89
2023/09/18 06:11:03;;;;;;;;;;;;;;;20.50;77.25;99917.72;5015349;28;19917;-88
2023/09/18 06:13:29;;;;;;;;;;;;;;;20.42;78.20;99925.38;5015943;28;19963;-88
2023/09/18 06:15:55;;;;;;;;;;;;;;;20.16;79.46;99921.47;5015719;28;19959;-86
2023/09/18 06:18:21;;;;;;;;;;;;;;;20.41;77.75;99925.78;5015284;28;20302;-86
2023/09/18 06:20:46;;;;;;;;;;;;;;;20.56;77.24;99926.69;5014645;28;19940;-87
2023/09/18 06:23:12;;;;;;;;;;;;;;;20.14;78.66;99926.72;5020473;28;19913;-87
2023/09/18 06:25:38;;;;;;;;;;;;;;;20.20;77.94;99921.50;5012303;28;19927;-87
2023/09/18 06:28:03;;;;;;;;;;;;;;;20.43;77.66;99927.00;5003740;28;19913;-87
2023/09/18 06:30:30;;;;;;;;;;;;;;;20.59;77.59;99921.06;5046771;28;19917;-86
2023/09/18 06:32:56;;;;;;;;;;;;;;;20.36;77.98;99926.13;5006054;28;19917;-85
2023/09/18 06:35:21;;;;;;;;;;;;;;;20.81;76.94;99929.78;4995097;28;20036;-85
2023/09/18 06:37:46;;;;;;;;;;;;;;;21.34;75.06;99930.53;5010244;28;20404;-87
2023/09/18 06:40:12;;;;;;;;;;;;;;;21.16;75.13;99919.03;5014448;28;19920;-88
2023/09/18 06:42:37;;;;;;;;;;;;;;;21.54;74.38;99928.22;5014836;28;19917;-87
2023/09/18 06:45:03;;;;;;;;;;;;;;;21.48;73.84;99929.78;5015827;28;19937;-86
2023/09/18 06:47:28;;;;;;;;;;;;;;;21.63;73.06;99924.16;5020078;28;21373;-85
2023/09/18 06:49:53;;;;;;;;;;;;;;;21.02;75.16;99926.28;5036405;28;19938;-86
2023/09/18 06:52:19;;;;;;;;;;;;;;;21.63;73.32;99925.00;5037124;28;19913;-85
2023/09/18 06:54:44;;;;;;;;;;;;;;;21.73;73.04;99934.81;5021544;28;19916;-88
2023/09/18 06:57:10;;;;;;;;;;;;;;;21.59;72.65;99927.81;5023525;28;19920;-90
2023/09/18 06:59:35;;;;;;;;;;;;;;;21.74;72.48;99925.88;5021162;28;19913;-85
2023/09/18 07:02:01;;;;;;;;;;;;;;;22.14;72.35;99922.34;5009446;28;19916;-88
2023/09/18 07:04:26;;;;;;;;;;;;;;;22.29;71.44;99923.97;5014869;28;20008;-87
2023/09/18 07:06:54;;;;;;;;;;;;;;;22.39;70.36;99925.22;5007589;28;19917;-87
2023/09/18 07:09:25;;;;;;;;;;;;;;;22.50;70.42;99930.97;5014377;28;20421;-86
2023/09/18 07:11:51;;;;;;;;;;;;;;;22.18;70.93;99928.03;5014471;28;19966;-87
2023/09/18 07:14:16;;;;;;;;;;;;;;;22.43;70.16;99925.22;5014104;28;19995;-86
2023/09/18 07:16:42;;;;;;;;;;;;;;;22.39;71.03;99936.63;5013775;28;19913;-86
2023/09/18 07:19:11;;;;;;;;;;;;;;;21.92;70.66;99925.13;5030951;28;20376;-88
2023/09/18 07:21:38;;;;;;;;;;;;;;;22.21;69.52;99927.22;5014288;28;19924;-87
2023/09/18 07:24:05;;;;;;;;;;;;;;;22.50;69.10;99930.13;5007830;28;19913;-89
2023/09/18 07:26:30;;;;;;;;;;;;;;;22.86;68.15;99935.84;5019704;28;20003;-88
2023/09/18 07:28:56;;;;;;;;;;;;;;;23.11;67.47;99938.66;5017969;28;19964;-87
2023/09/18 07:31:22;;;;;;;;;;;;;;;23.27;66.47;99938.25;5013410;28;19971;-86
2023/09/18 07:33:48;;;;;;;;;;;;;;;23.49;63.87;99938.22;5036362;28;19917;-87
2023/09/18 07:36:15;;;;;;;;;;;;;;;23.42;63.24;99935.38;5013964;28;19909;-88
2023/09/18 07:38:43;;;;;;;;;;;;;;;23.31;64.82;99934.56;5013909;28;19963;-88
2023/09/18 07:41:08;;;;;;;;;;;;;;;23.17;65.59;99936.22;5013873;28;19920;-88
2023/09/18 07:43:37;;;;;;;;;;;;;;;23.09;64.19;99932.56;5013872;28;19913;-88
2023/09/18 07:46:06;;;;;;;;;;;;;;;23.20;63.98;99926.81;5014039;28;20532;-88
2023/09/18 07:48:31;;;;;;;;;;;;;;;23.41;63.09;99934.56;5013695;28;19909;-86
2023/09/18 07:50:59;;;;;;;;;;;;;;;23.66;62.03;99927.94;5014215;28;19924;-87
2023/09/18 07:53:24;;;;;;;;;;;;;;;23.88;61.80;99924.97;5015176;28;20389;-87
2023/09/18 07:55:55;;;;;;;;;;;;;;;24.14;60.99;99928.56;5002949;28;19923;-89
2023/09/18 07:58:20;;;;;;;;;;;;;;;24.10;60.15;99924.88;5008878;28;19913;-87
2023/09/18 08:00:48;;;;;;;;;;;;;;;24.32;60.97;99921.91;5007025;28;20427;-86
2023/09/18 08:03:13;;;;;;;;;;;;;;;24.44;57.28;99921.41;5033824;28;19915;-85
2023/09/18 08:05:39;;;;;;;;;;;;;;;24.51;57.79;99920.53;5032244;28;19995;-89
2023/09/18 08:08:25;;;;;;;;;;;;;;;24.61;57.35;99916.78;5009686;28;20380;-88
2023/09/18 08:10:51;;;;;;;;;;;;;;;24.61;56.72;99911.06;5017096;28;19917;-89
2023/09/18 08:13:17;;;;;;;;;;;;;;;24.65;56.11;99913.91;5017710;28;19913;-87
2023/09/18 08:15:45;;;;;;;;;;;;;;;24.71;55.54;99909.31;5017127;28;20003;-87
2023/09/18 08:18:13;;;;;;;;;;;;;;;25.01;55.67;99902.16;5007291;28;19913;-88
2023/09/18 08:20:42;;;;;;;;;;;;;;;24.88;55.42;99901.84;5009663;28;19909;-86
2023/09/18 08:23:09;;;;;;;;;;;;;;;24.80;56.63;99912.56;5029768;28;20399;-87
2023/09/18 08:25:37;;;;;;;;;;;;;;;24.66;58.10;99904.88;5000963;28;19913;-86
2023/09/18 08:28:04;;;;;;;;;;;;;;;24.90;57.30;99912.88;5019617;28;20306;-85
2023/09/18 08:30:30;;;;;;;;;;;;;;;24.93;56.52;99904.28;5016869;28;19913;-87
2023/09/18 08:32:55;;;;;;;;;;;;;;;24.63;56.92;99899.22;5000475;28;19909;-87
2023/09/18 08:35:21;;;;;;;;;;;;;;;24.88;55.84;99903.91;5035402;28;20059;-87
2023/09/18 08:37:47;;;;;;;;;;;;;;;24.74;56.30;99899.94;5018753;28;20012;-87
2023/09/18 08:40:13;;;;;;;;;;;;;;;24.64;56.97;99900.84;5039793;28;20373;-89
2023/09/18 08:42:40;;;;;;;;;;;;;;;24.76;56.55;99900.31;4997595;28;19941;-89
2023/09/18 08:45:09;;;;;;;;;;;;;;;24.78;55.45;99895.00;4997485;28;19909;-89
2023/09/18 08:47:34;;;;;;;;;;;;;;;24.47;55.98;99900.53;5004726;28;20304;-88
2023/09/18 08:50:00;;;;;;;;;;;;;;;24.54;56.47;99903.34;5036721;28;19912;-89
2023/09/18 08:52:26;;;;;;;;;;;;;;;24.68;55.93;99908.16;5036917;28;19962;-88
2023/09/18 08:54:51;;;;;;;;;;;;;;;24.66;56.71;99898.34;5026183;28;19910;-89
2023/09/18 08:57:17;;;;;;;;;;;;;;;24.64;55.64;99903.69;5021254;28;19913;-89
2023/09/18 08:59:43;;;;;;;;;;;;;;;24.69;55.73;99900.38;5013084;28;19944;-85
2023/09/18 09:02:11;;;;;;;;;;;;;;;24.91;54.13;99883.84;5002882;28;20000;-95
2023/09/18 09:04:37;;;;;;;;;;;;;;;25.26;52.36;99892.47;5023308;28;19920;-95
2023/09/18 09:07:03;;;;;;;;;;;;;;;25.30;52.21;99892.44;5024591;28;19984;-91
2023/09/18 09:09:29;;;;;;;;;;;;;;;25.11;52.56;99885.28;5022777;28;20462;-93
2023/09/18 09:11:54;;;;;;;;;;;;;;;24.84;51.85;99888.81;5016568;28;20065;-92
2023/09/18 09:14:27;;;;;;;;;;;;;;;24.74;52.20;99885.63;5021187;28;19937;-92
2023/09/18 09:16:54;;;;;;;;;;;;;;;24.65;52.28;99885.28;5016182;28;20050;-94
2023/09/18 09:19:29;;;;;;;;;;;;;;;25.17;51.67;99877.84;5016930;28;19909;-94
2023/09/18 09:21:55;;;;;;;;;;;;;;;25.39;49.98;99887.00;5016765;28;20266;-92
2023/09/18 09:24:37;;;;;;;;;;;;;;;25.49;48.72;99883.22;5016566;28;19913;-94
2023/09/18 09:27:03;;;;;;;;;;;;;;;26.10;48.95;99885.69;5021218;28;19913;-92
2023/09/18 09:29:30;;;;;;;;;;;;;;;26.45;46.96;99887.22;5026825;28;19921;-92
2023/09/18 09:31:56;;;;;;;;;;;;;;;26.78;44.48;99893.19;5016634;28;20102;-94
2023/09/18 09:34:29;;;;;;;;;;;;;;;26.90;45.74;99893.84;5012998;28;20378;-93
2023/09/18 09:36:55;;;;;;;;;;;;;;;26.77;45.47;99891.56;5011548;28;19920;-93
2023/09/18 09:39:21;;;;;;;;;;;;;;;26.94;46.09;99888.88;5013034;28;20014;-93
2023/09/18 09:41:48;;;;;;;;;;;;;;;26.83;44.65;99886.16;5018519;28;19917;-93
2023/09/18 09:44:14;;;;;;;;;;;;;;;27.04;44.52;99892.78;5022105;28;19909;-93
2023/09/18 09:46:46;;;;;;;;;;;;;;;26.93;44.77;99878.63;5019395;28;19909;-93
2023/09/18 09:49:11;;;;;;;;;;;;;;;26.77;43.86;99879.31;5036674;28;19916;-95
2023/09/18 09:51:37;;;;;;;;;;;;;;;26.46;45.01;99876.53;5018673;28;19909;-94
2023/09/18 09:54:02;;;;;;;;;;;;;;;26.40;44.72;99873.34;5019788;28;19936;-92
2023/09/18 09:56:44;;;;;;;;;;;;;;;26.34;45.32;99869.38;5020360;28;19913;-94
2023/09/18 09:59:11;;;;;;;;;;;;;;;25.67;45.66;99861.31;5019316;28;19917;-95
2023/09/18 10:01:37;;;;;;;;;;;;;;;26.03;45.74;99863.69;5017399;28;19913;-94
2023/09/18 10:04:09;;;;;;;;;;;;;;;26.41;46.50;99856.97;5018107;28;19909;-94
2023/09/18 10:06:35;;;;;;;;;;;;;;;26.35;45.49;99862.41;5004880;28;19909;-92
2023/09/18 10:09:07;;;;;;;;;;;;;;;26.60;43.23;99855.44;4993091;28;19910;-94
2023/09/18 10:11:36;;;;;;;;;;;;;;;26.51;43.59;99860.91;4993122;28;19948;-95
2023/09/18 10:14:07;;;;;;;;;;;;;;;26.55;43.95;99856.72;4993191;28;20001;-93
2023/09/18 10:16:35;;;;;;;;;;;;;;;26.31;45.04;99853.06;4987396;28;19913;-94
2023/09/18 10:19:08;;;;;;;;;;;;;;;26.00;44.33;99853.09;4980264;28;19920;-93
2023/09/18 10:21:33;;;;;;;;;;;;;;;26.30;44.58;99845.66;4998726;28;19909;-93
2023/09/18 10:24:04;;;;;;;;;;;;;;;26.48;43.78;99851.94;5009151;28;19921;-94
2023/09/18 10:26:33;;;;;;;;;;;;;;;26.72;43.71;99846.19;4996448;28;19996;-94
2023/09/18 10:28:59;;;;;;;;;;;;;;;27.00;43.58;99838.31;4995929;28;19917;-92
2023/09/18 10:31:28;;;;;;;;;;;;;;;27.19;43.06;99839.56;5028872;28;19909;-93
2023/09/18 10:33:55;;;;;;;;;;;;;;;27.26;42.76;99837.81;4991780;28;19922;-93
2023/09/18 10:36:22;;;;;;;;;;;;;;;27.44;41.70;99831.69;4976628;28;19909;-93
2023/09/18 10:38:50;;;;;;;;;;;;;;;27.39;41.55;99840.81;4976555;28;19910;-93
2023/09/18 10:41:20;;;;;;;;;;;;;;;27.41;42.32;99830.50;4976215;28;19968;-94
2023/09/18 10:43:47;;;;;;;;;;;;;;;27.44;41.79;99837.44;4976385;28;20406;-94
2023/09/18 10:46:13;;;;;;;;;;;;;;;27.89;40.13;99824.56;4976214;28;20374;-94
2023/09/18 10:48:40;;;;;;;;;;;;;;;28.11;40.13;99821.97;4987349;28;19914;-94
2023/09/18 10:51:06;;;;;;;;;;;;;;;28.13;39.46;99822.34;4991278;28;19949;-93
2023/09/18 10:53:32;;;;;;;;;;;;;;;28.28;39.85;99816.28;4992328;28;19917;-93
2023/09/18 10:55:58;;;;;;;;;;;;;;;28.44;38.76;99818.34;4996964;28;19925;-92
2023/09/18 10:58:26;;;;;;;;;;;;;;;28.51;38.96;99829.63;4995794;28;19914;-93
2023/09/18 11:00:54;;;;;;;;;;;;;;;28.38;39.36;99814.38;4996007;28;20381;-95
2023/09/18 11:03:22;;;;;;;;;;;;;;;28.37;38.48;99819.31;4995734;28;19909;-94
2023/09/18 11:05:50;;;;;;;;;;;;;;;28.22;38.95;99820.94;4995693;28;19917;-95
2023/09/18 11:08:27;;;;;;;;;;;;;;;27.67;38.53;99818.50;4995864;28;20011;-95
2023/09/18 11:10:58;;;;;;;;;;;;;;;28.17;38.62;99805.00;5000962;28;19920;-95
2023/09/18 11:13:30;;;;;;;;;;;;;;;28.43;39.01;99806.00;4995978;28;19917;-94
2023/09/18 11:16:00;;;;;;;;;;;;;;;28.48;39.23;99807.53;5028644;28;20305;-93
2023/09/18 11:18:31;;;;;;;;;;;;;;;28.36;39.49;99799.63;5030298;28;19916;-93
2023/09/18 11:21:06;;;;;;;;;;;;;;;28.47;38.07;99805.91;5011524;28;19964;-93
2023/09/18 11:23:40;;;;;;;;;;;;;;;28.58;37.38;99794.94;5004244;28;19919;-92
2023/09/18 11:26:07;;;;;;;;;;;;;;;28.67;38.04;99800.03;5015005;28;19909;-92
2023/09/18 11:28:32;;;;;;;;;;;;;;;28.90;37.38;99797.41;5015159;28;19948;-92
2023/09/18 11:31:00;;;;;;;;;;;;;;;29.08;35.72;99796.88;5017345;28;19963;-92
2023/09/18 11:33:36;;;;;;;;;;;;;;;28.70;36.42;99796.25;5019378;28;19909;-93
2023/09/18 11:36:33;;;;;;;;;;;;;;;29.17;36.60;99794.16;5018994;28;19959;-93
2023/09/18 11:39:03;;;;;;;;;;;;;;;28.88;36.68;99786.34;4985926;28;19920;-93
2023/09/18 11:41:30;;;;;;;;;;;;;;;29.04;36.21;99790.44;5013779;28;19983;-93
2023/09/18 11:44:10;;;;;;;;;;;;;;;28.94;35.79;99786.59;5018696;28;19920;-93
2023/09/18 11:46:39;;;;;;;;;;;;;;;29.02;36.34;99784.31;5039875;28;19968;-93
2023/09/18 11:49:05;;;;;;;;;;;;;;;29.01;35.06;99777.75;5000487;28;19909;-94
2023/09/18 11:51:31;;;;;;;;;;;;;;;28.69;35.11;99782.34;4999488;28;19917;-93
2023/09/18 11:53:57;;;;;;;;;;;;;;;28.66;35.20;99781.16;5003488;28;20431;-93
2023/09/18 11:56:23;;;;;;;;;;;;;;;28.75;35.52;99782.59;5018829;28;19917;-93
2023/09/18 11:58:49;;;;;;;;;;;;;;;29.05;35.23;99772.72;5019810;28;19913;-94
2023/09/18 12:01:15;;;;;;;;;;;;;;;28.70;34.86;99778.97;5019646;28;19913;-93
2023/09/18 12:03:41;;;;;;;;;;;;;;;28.84;34.52;99768.34;5012852;28;19914;-95
2023/09/18 12:06:08;;;;;;;;;;;;;;;28.88;34.47;99763.31;5027406;28;19919;-93
2023/09/18 12:08:35;;;;;;;;;;;;;;;29.08;34.22;99763.16;5035762;28;19909;-95
2023/09/18 12:11:05;;;;;;;;;;;;;;;29.37;33.87;99759.41;5023289;28;20011;-93
2023/09/18 12:13:32;;;;;;;;;;;;;;;29.65;33.62;99747.47;5025220;28;19916;-96
2023/09/18 12:16:03;;;;;;;;;;;;;;;29.42;33.54;99758.03;5015956;28;20299;-96
2023/09/18 12:18:29;;;;;;;;;;;;;;;29.48;34.08;99756.22;5021971;28;19917;-96
2023/09/18 12:20:58;;;;;;;;;;;;;;;29.18;34.19;99746.81;5029920;28;20289;-95
2023/09/18 12:23:24;;;;;;;;;;;;;;;29.14;34.54;99749.81;5031864;28;19909;-95
2023/09/18 12:25:50;;;;;;;;;;;;;;;29.00;34.25;99742.41;5023541;28;19910;-94
2023/09/18 12:28:17;;;;;;;;;;;;;;;28.90;33.86;99742.72;5023181;28;19909;-95
2023/09/18 12:30:42;;;;;;;;;;;;;;;28.70;34.47;99738.69;5015165;28;19914;-95
2023/09/18 12:33:08;;;;;;;;;;;;;;;28.51;34.26;99743.34;5018493;28;19913;-93
2023/09/18 12:35:34;;;;;;;;;;;;;;;28.83;34.27;99738.78;5017014;28;19916;-92
2023/09/18 12:38:00;;;;;;;;;;;;;;;29.22;33.54;99738.88;5035746;28;19959;-92
2023/09/18 12:40:30;;;;;;;;;;;;;;;28.78;33.62;99735.63;5025090;28;19913;-96
2023/09/18 12:42:59;;;;;;;;;;;;;;;28.91;33.52;99724.19;5057604;23;19960;-74
2023/09/18 12:45:25;;;;;;;;;;;;;;;29.07;33.02;99729.06;5005451;28;19967;-74